createdAt,value
2023-05-02T00:01:59.568Z,100077.75
2023-05-02T00:05:02.995Z,100071.41
2023-05-02T00:08:05.697Z,100075.91
2023-05-02T00:11:08.715Z,100072.09
2023-05-02T00:14:11.380Z,100070.94
2023-05-02T00:17:20.752Z,100065.59
2023-05-02T00:20:23.427Z,100065.75
2023-05-02T00:23:26.387Z,100071.75
2023-05-02T00:26:29.085Z,100071.25
2023-05-02T00:29:31.918Z,100078.75
2023-05-02T00:32:34.981Z,100077.09
2023-05-02T00:35:38.098Z,100085.91
2023-05-02T00:38:40.581Z,100084.25
2023-05-02T00:41:43.389Z,100069.41
2023-05-02T00:44:46.977Z,100083.56
2023-05-02T00:47:50.439Z,100084.25
2023-05-02T00:50:53.216Z,100079.56
2023-05-02T00:53:58.500Z,100084.78
2023-05-02T00:57:01.046Z,100077.59
2023-05-02T01:00:04.738Z,100083.94
2023-05-02T01:03:30.152Z,100085.25
2023-05-02T01:06:42.248Z,100085.75
2023-05-02T01:10:00.637Z,100076.06
2023-05-02T01:13:08.973Z,100087.56
2023-05-02T01:16:12.552Z,100081.25
2023-05-02T01:19:25.972Z,100083.09
2023-05-02T01:22:30.217Z,100083.25
2023-05-02T01:25:45.146Z,100076.75
2023-05-02T01:28:58.695Z,100073.09
2023-05-02T01:32:03.237Z,100074.59
2023-05-02T01:35:07.543Z,100076.09
2023-05-02T01:38:14.779Z,100071.09
2023-05-02T01:41:18.663Z,100072.25
2023-05-02T01:44:23.069Z,100063.44
2023-05-02T01:47:26.841Z,100066.41
2023-05-02T01:50:30.141Z,100066.56
2023-05-02T01:53:34.266Z,100067.41
2023-05-02T01:56:38.672Z,100064.41
2023-05-02T01:59:42.723Z,100060.41
2023-05-02T02:02:47.118Z,100064.22
2023-05-02T02:05:51.901Z,100060.06
2023-05-02T02:08:55.208Z,100061.22
2023-05-02T02:12:10.947Z,100053.56
2023-05-02T02:15:21.869Z,100059.41
2023-05-02T02:18:26.514Z,100056.22
2023-05-02T02:21:31.391Z,100054.06
2023-05-02T02:24:36.834Z,100050.34
2023-05-02T02:27:40.827Z,100056.50
2023-05-02T02:30:43.854Z,100048.19
2023-05-02T02:33:46.821Z,100049.81
2023-05-02T02:36:57.132Z,100050.31
2023-05-02T02:40:31.347Z,100045.59
2023-05-02T02:43:37.826Z,100055.03
2023-05-02T02:46:55.808Z,100047.00
2023-05-02T02:50:16.580Z,100050.31
2023-05-02T02:53:26.510Z,100053.59
2023-05-02T02:56:35.144Z,100049.88
2023-05-02T02:59:42.379Z,100054.84
2023-05-02T03:02:47.215Z,100055.78
2023-05-02T03:05:50.864Z,100049.63
2023-05-02T03:08:53.486Z,100055.56
2023-05-02T03:11:59.062Z,100051.53
2023-05-02T03:15:39.402Z,100055.88
2023-05-02T03:18:43.600Z,100052.47
2023-05-02T03:21:46.823Z,100061.44
2023-05-02T03:24:50.372Z,100061.56
2023-05-02T03:27:54.118Z,100057.37
2023-05-02T03:30:57.170Z,100059.88
2023-05-02T03:34:01.091Z,100061.56
2023-05-02T03:37:04.094Z,100060.72
2023-05-02T03:40:08.024Z,100068.84
2023-05-02T03:43:11.570Z,100066.19
2023-05-02T03:46:14.381Z,100070.75
2023-05-02T03:49:19.835Z,100073.41
2023-05-02T03:52:23.752Z,100076.22
2023-05-02T03:55:28.473Z,100081.00
2023-05-02T03:58:31.631Z,100069.75
2023-05-02T04:01:35.084Z,100085.13
2023-05-02T04:04:40.237Z,100079.50
2023-05-02T04:07:44.370Z,100084.34
2023-05-02T04:10:47.490Z,100082.22
2023-05-02T04:13:51.982Z,100088.06
2023-05-02T04:16:56.481Z,100088.22
2023-05-02T04:20:00.051Z,100082.62
2023-05-02T04:23:05.312Z,100088.59
2023-05-02T04:26:08.201Z,100103.56
2023-05-02T04:29:11.855Z,100097.09
2023-05-02T04:32:15.069Z,100106.59
2023-05-02T04:35:18.237Z,100096.50
2023-05-02T04:38:21.558Z,100105.13
2023-05-02T04:41:24.791Z,100108.16
2023-05-02T04:44:28.107Z,100107.69
2023-05-02T04:47:31.729Z,100108.91
2023-05-02T04:50:35.557Z,100116.72
2023-05-02T04:53:38.600Z,100115.66
2023-05-02T04:56:41.553Z,100113.88
2023-05-02T04:59:45.366Z,100122.56
2023-05-02T05:02:48.020Z,100126.44
2023-05-02T05:05:51.747Z,100118.00
2023-05-02T05:08:55.004Z,100119.03
2023-05-02T05:11:58.071Z,100112.25
2023-05-02T05:15:01.041Z,100113.75
2023-05-02T05:18:06.790Z,100118.31
2023-05-02T05:21:10.661Z,100112.91
2023-05-02T05:24:14.822Z,100125.75
2023-05-02T05:27:17.407Z,100123.47
2023-05-02T05:30:20.578Z,100124.53
2023-05-02T05:33:23.465Z,100129.69
2023-05-02T05:36:27.937Z,100130.91
2023-05-02T05:39:30.774Z,100124.56
2023-05-02T05:42:33.824Z,100137.44
2023-05-02T05:45:36.967Z,100131.94
2023-05-02T05:48:40.647Z,100148.41
2023-05-02T05:51:43.550Z,100150.91
2023-05-02T05:54:46.751Z,100150.69
2023-05-02T05:57:49.434Z,100150.81
2023-05-02T06:00:52.392Z,100149.97
2023-05-02T06:03:55.301Z,100156.09
2023-05-02T06:06:58.152Z,100153.38
2023-05-02T06:10:01.461Z,100158.69
2023-05-02T06:13:06.133Z,100162.84
2023-05-02T06:16:09.353Z,100156.91
2023-05-02T06:19:12.141Z,100157.19
2023-05-02T06:22:15.276Z,100160.44
2023-05-02T06:25:17.834Z,100165.97
2023-05-02T06:28:20.907Z,100157.97
2023-05-02T06:31:23.936Z,100159.97
2023-05-02T06:34:26.741Z,100162.59
2023-05-02T06:37:34.733Z,100173.00
2023-05-02T06:40:38.889Z,100161.72
2023-05-02T06:43:41.813Z,100167.72
2023-05-02T06:46:44.730Z,100163.00
2023-05-02T06:49:47.383Z,100169.81
2023-05-02T06:52:50.577Z,100173.50
2023-05-02T06:55:53.651Z,100173.84
2023-05-02T06:58:56.601Z,100168.16
2023-05-02T07:01:59.680Z,100172.31
2023-05-02T07:05:02.529Z,100171.22
2023-05-02T07:08:05.418Z,100168.91
2023-05-02T07:11:08.450Z,100172.16
2023-05-02T07:14:10.955Z,100170.84
2023-05-02T07:17:13.814Z,100173.38
2023-05-02T07:20:20.211Z,100178.09
2023-05-02T07:23:23.187Z,100172.44
2023-05-02T07:26:27.557Z,100172.13
2023-05-02T07:29:30.813Z,100170.09
2023-05-02T07:32:34.085Z,100168.44
2023-05-02T07:35:37.061Z,100167.69
2023-05-02T07:38:39.575Z,100170.62
2023-05-02T07:41:42.468Z,100165.13
2023-05-02T07:44:44.990Z,100171.78
2023-05-02T07:47:47.801Z,100169.91
2023-05-02T07:50:50.420Z,100171.56
2023-05-02T07:53:55.643Z,100178.81
2023-05-02T07:57:02.297Z,100177.81
2023-05-02T08:00:09.902Z,100180.31
2023-05-02T08:03:15.642Z,100177.00
2023-05-02T08:06:18.604Z,100174.94
2023-05-02T08:09:21.436Z,100178.44
2023-05-02T08:12:24.921Z,100175.75
2023-05-02T08:15:27.444Z,100171.97
2023-05-02T08:18:30.340Z,100180.03
2023-05-02T08:21:33.113Z,100178.56
2023-05-02T08:24:36.029Z,100173.31
2023-05-02T08:27:38.578Z,100178.09
2023-05-02T08:30:41.874Z,100179.72
2023-05-02T08:33:45.577Z,100180.53
2023-05-02T08:36:48.486Z,100174.50
2023-05-02T08:39:51.013Z,100172.13
2023-05-02T08:42:54.828Z,100162.44
2023-05-02T08:45:59.960Z,100170.16
2023-05-02T08:49:03.549Z,100171.31
2023-05-02T08:52:06.870Z,100167.50
2023-05-02T08:55:10.057Z,100167.44
2023-05-02T08:58:15.270Z,100163.28
2023-05-02T09:01:21.877Z,100163.81
2023-05-02T09:04:29.267Z,100157.12
2023-05-02T09:07:44.554Z,100157.44
2023-05-02T09:10:47.407Z,100153.72
2023-05-02T09:13:58.921Z,100149.56
2023-05-02T09:17:01.946Z,100151.84
2023-05-02T09:20:05.899Z,100154.31
2023-05-02T09:23:09.029Z,100153.19
2023-05-02T09:26:15.061Z,100155.59
2023-05-02T09:29:20.649Z,100150.09
2023-05-02T09:32:46.914Z,100142.66
2023-05-02T09:35:54.799Z,100148.13
2023-05-02T09:39:10.220Z,100150.69
2023-05-02T09:42:12.803Z,100151.47
2023-05-02T09:45:23.812Z,100147.66
2023-05-02T09:48:27.993Z,100147.88
2023-05-02T09:51:31.357Z,100147.12
2023-05-02T09:54:36.348Z,100148.84
2023-05-02T09:57:41.545Z,100143.97
2023-05-02T10:00:45.193Z,100145.75
2023-05-02T10:03:48.984Z,100139.91
2023-05-02T10:06:53.031Z,100151.09
2023-05-02T10:09:58.337Z,100155.09
2023-05-02T10:13:02.077Z,100149.34
2023-05-02T10:16:06.978Z,100152.53
2023-05-02T10:19:10.741Z,100142.44
2023-05-02T10:22:13.887Z,100143.72
2023-05-02T10:25:16.428Z,100138.66
2023-05-02T10:28:19.810Z,100128.03
2023-05-02T10:31:22.829Z,100122.41
2023-05-02T10:34:25.801Z,100135.13
2023-05-02T10:37:30.042Z,100134.03
2023-05-02T10:40:33.249Z,100129.91
2023-05-02T10:43:37.890Z,100128.87
2023-05-02T10:46:41.544Z,100129.50
2023-05-02T10:50:02.841Z,100122.41
2023-05-02T10:53:39.589Z,100124.16
2023-05-02T10:57:14.410Z,100122.34
2023-05-02T11:00:26.298Z,100116.09
2023-05-02T11:03:57.937Z,100114.31
2023-05-02T11:07:00.707Z,100109.66
2023-05-02T11:10:15.614Z,100101.94
2023-05-02T11:13:56.423Z,100094.28
2023-05-02T11:16:59.593Z,100090.88
2023-05-02T11:20:05.449Z,100094.19
2023-05-02T11:23:14.870Z,100088.03
2023-05-02T11:26:22.282Z,100090.78
2023-05-02T11:29:53.503Z,100083.28
2023-05-02T11:32:59.340Z,100078.31
2023-05-02T11:36:02.255Z,100076.50
2023-05-02T11:39:08.083Z,100069.41
2023-05-02T11:42:10.730Z,100071.78
2023-05-02T11:45:13.881Z,100074.16
2023-05-02T11:48:18.103Z,100063.28
2023-05-02T11:51:23.305Z,100068.50
2023-05-02T11:54:26.038Z,100065.81
2023-05-02T11:57:28.999Z,100055.38
2023-05-02T12:00:32.293Z,100063.50
2023-05-02T12:03:35.321Z,100063.50
2023-05-02T12:06:38.385Z,100055.78
2023-05-02T12:09:52.535Z,100057.56
2023-05-02T12:13:04.633Z,100060.63
2023-05-02T12:16:08.011Z,100063.41
2023-05-02T12:19:10.921Z,100061.75
2023-05-02T12:22:14.536Z,100049.72
2023-05-02T12:25:17.161Z,100053.25
2023-05-02T12:28:20.688Z,100054.47
2023-05-02T12:31:23.923Z,100052.81
2023-05-02T12:34:34.372Z,100047.28
2023-05-02T12:37:36.943Z,100048.47
2023-05-02T12:40:45.871Z,100052.41
2023-05-02T12:43:49.588Z,100048.47
2023-05-02T12:47:00.533Z,100053.38
2023-05-02T12:50:03.537Z,100049.59
2023-05-02T12:53:07.672Z,100051.56
2023-05-02T12:56:10.992Z,100044.53
2023-05-02T12:59:32.018Z,100042.59
2023-05-02T13:02:34.684Z,100039.63
2023-05-02T13:05:38.057Z,100041.50
2023-05-02T13:08:40.830Z,100042.00
2023-05-02T13:11:43.942Z,100039.03
2023-05-02T13:14:46.586Z,100031.97
2023-05-02T13:17:51.043Z,100035.16
2023-05-02T13:20:54.553Z,100030.31
2023-05-02T13:23:58.876Z,100030.56
2023-05-02T13:27:02.136Z,100021.59
2023-05-02T13:30:08.793Z,100029.00
2023-05-02T13:33:12.252Z,100022.66
2023-05-02T13:36:15.345Z,100020.09
2023-05-02T13:39:18.161Z,100019.59
2023-05-02T13:42:21.076Z,100018.44
2023-05-02T13:45:24.330Z,100016.47
2023-05-02T13:48:27.212Z,100019.19
2023-05-02T13:51:31.541Z,100019.06
2023-05-02T13:54:34.316Z,100020.03
2023-05-02T13:57:37.022Z,100026.28
2023-05-02T14:00:39.977Z,100037.66
2023-05-02T14:03:43.286Z,100033.09
2023-05-02T14:06:46.047Z,100035.31
2023-05-02T14:09:49.103Z,100033.66
2023-05-02T14:12:53.098Z,100020.34
2023-05-02T14:15:55.999Z,100016.06
2023-05-02T14:18:58.903Z,100020.34
2023-05-02T14:22:02.337Z,100016.94
2023-05-02T14:25:05.963Z,100022.94
2023-05-02T14:28:08.860Z,100021.88
2023-05-02T14:31:11.528Z,100014.84
2023-05-02T14:34:14.624Z,100021.56
2023-05-02T14:37:17.236Z,100014.72
2023-05-02T14:40:20.417Z,100011.03
2023-05-02T14:43:23.136Z,100014.59
2023-05-02T14:46:27.485Z,100018.97
2023-05-02T14:49:30.253Z,100012.50
2023-05-02T14:52:33.229Z,100015.44
2023-05-02T14:55:37.113Z,100021.31
2023-05-02T14:58:40.068Z,100021.44
2023-05-02T15:01:42.973Z,100020.97
2023-05-02T15:04:46.805Z,100019.44
2023-05-02T15:07:49.492Z,100014.22
2023-05-02T15:10:52.474Z,100014.47
2023-05-02T15:13:57.512Z,100017.31
2023-05-02T15:17:02.129Z,100018.97
2023-05-02T15:20:05.600Z,100015.66
2023-05-02T15:23:08.722Z,100014.25
2023-05-02T15:26:11.257Z,100015.66
2023-05-02T15:29:14.021Z,100007.78
2023-05-02T15:32:16.592Z,100009.06
2023-05-02T15:35:19.502Z,100009.53
2023-05-02T15:38:22.281Z,100011.53
2023-05-02T15:41:27.342Z,100004.34
2023-05-02T15:44:29.921Z,99999.28
2023-05-02T15:47:32.757Z,100007.06
2023-05-02T15:50:36.495Z,100002.81
2023-05-02T15:53:42.450Z,99998.69
2023-05-02T15:56:44.997Z,100000.72
2023-05-02T15:59:48.219Z,100003.66
2023-05-02T16:02:51.062Z,100001.66
2023-05-02T16:05:54.826Z,100000.81
2023-05-02T16:08:57.452Z,100007.19
2023-05-02T16:12:01.605Z,100000.81
2023-05-02T16:15:05.300Z,99999.28
2023-05-02T16:18:08.330Z,100004.38
2023-05-02T16:21:11.425Z,99996.81
2023-05-02T16:24:14.309Z,100002.22
2023-05-02T16:27:16.968Z,100001.00
2023-05-02T16:30:19.962Z,100000.66
2023-05-02T16:33:22.694Z,100007.13
2023-05-02T16:36:26.459Z,99993.81
2023-05-02T16:39:29.410Z,99997.59
2023-05-02T16:42:32.519Z,100001.94
2023-05-02T16:45:35.118Z,100000.72
2023-05-02T16:48:37.939Z,100000.50
2023-05-02T16:51:40.479Z,99998.47
2023-05-02T16:54:43.300Z,100001.06
2023-05-02T16:57:45.847Z,99997.03
2023-05-02T17:00:48.800Z,99998.56
2023-05-02T17:03:51.888Z,99998.19
2023-05-02T17:06:56.287Z,99995.22
2023-05-02T17:09:59.639Z,99999.22
2023-05-02T17:13:03.562Z,100002.81
2023-05-02T17:16:08.383Z,99997.12
2023-05-02T17:19:11.717Z,100009.59
2023-05-02T17:22:15.217Z,100008.59
2023-05-02T17:25:18.167Z,100013.87
2023-05-02T17:28:21.102Z,100018.56
2023-05-02T17:31:24.414Z,100023.53
2023-05-02T17:34:28.959Z,100038.72
2023-05-02T17:37:32.949Z,100034.44
2023-05-02T17:40:36.760Z,100043.06
2023-05-02T17:43:43.024Z,100045.78
2023-05-02T17:46:46.713Z,100049.91
2023-05-02T17:49:51.291Z,100044.37
2023-05-02T17:52:54.005Z,100053.84
2023-05-02T17:55:57.551Z,100063.81
2023-05-02T17:59:00.527Z,100059.69
2023-05-02T18:02:07.751Z,100069.12
2023-05-02T18:05:13.242Z,100062.72
2023-05-02T18:08:16.648Z,100061.84
2023-05-02T18:11:21.127Z,100065.84
2023-05-02T18:14:23.948Z,100067.78
2023-05-02T18:17:28.193Z,100076.75
2023-05-02T18:20:31.319Z,100079.06
2023-05-02T18:23:34.818Z,100080.34
2023-05-02T18:26:37.755Z,100081.81
2023-05-02T18:29:41.436Z,100082.88
2023-05-02T18:32:44.807Z,100087.28
2023-05-02T18:35:49.378Z,100089.78
2023-05-02T18:38:52.326Z,100102.69
2023-05-02T18:41:55.400Z,100110.41
2023-05-02T18:44:58.027Z,100106.78
2023-05-02T18:48:01.268Z,100105.72
2023-05-02T18:51:04.712Z,100106.38
2023-05-02T18:54:12.719Z,100115.97
2023-05-02T18:57:15.656Z,100119.53
2023-05-02T19:00:20.505Z,100126.59
2023-05-02T19:03:23.984Z,100126.00
2023-05-02T19:06:29.556Z,100136.56
2023-05-02T19:09:32.591Z,100141.31
2023-05-02T19:12:35.933Z,100149.22
2023-05-02T19:15:38.753Z,100151.69
2023-05-02T19:18:43.473Z,100151.25
2023-05-02T19:21:48.071Z,100158.09
2023-05-02T19:24:51.106Z,100158.25
2023-05-02T19:27:53.938Z,100167.16
2023-05-02T19:30:57.097Z,100179.16
2023-05-02T19:34:00.230Z,100183.53
2023-05-02T19:37:04.168Z,100196.28
2023-05-02T19:40:08.018Z,100198.16
2023-05-02T19:43:10.973Z,100195.44
2023-05-02T19:46:15.095Z,100196.50
2023-05-02T19:49:18.681Z,100197.81
2023-05-02T19:52:21.650Z,100203.13
2023-05-02T19:55:24.778Z,100201.41
2023-05-02T19:58:28.466Z,100204.38
2023-05-02T20:01:31.578Z,100198.22
2023-05-02T20:04:34.746Z,100195.97
2023-05-02T20:07:37.584Z,100201.66
2023-05-02T20:10:41.165Z,100212.81
2023-05-02T20:13:44.283Z,100208.66
2023-05-02T20:16:47.315Z,100218.97
2023-05-02T20:19:50.237Z,100228.50
2023-05-02T20:22:57.116Z,100224.84
2023-05-02T20:25:59.718Z,100218.88
2023-05-02T20:29:04.067Z,100215.28
2023-05-02T20:32:06.645Z,100225.12
2023-05-02T20:35:10.186Z,100217.66
2023-05-02T20:38:12.757Z,100223.00
2023-05-02T20:41:15.707Z,100221.84
2023-05-02T20:44:18.731Z,100218.34
2023-05-02T20:47:22.644Z,100202.81
2023-05-02T20:50:25.331Z,100212.09
2023-05-02T20:53:28.334Z,100212.09
2023-05-02T20:56:30.860Z,100207.28
2023-05-02T20:59:33.966Z,100208.41
2023-05-02T21:02:36.844Z,100203.25
2023-05-02T21:05:39.746Z,100208.22
2023-05-02T21:09:42.165Z,100208.88
2023-05-02T21:12:45.045Z,100210.91
2023-05-02T21:15:47.668Z,100207.59
2023-05-02T21:18:50.679Z,100221.84
2023-05-02T21:21:53.244Z,100226.81
2023-05-02T21:24:56.079Z,100231.09
2023-05-02T21:27:58.766Z,100226.44
2023-05-02T21:31:02.209Z,100215.75
2023-05-02T21:34:05.778Z,100226.75
2023-05-02T21:37:08.583Z,100220.59
2023-05-02T21:40:12.184Z,100223.03
2023-05-02T21:43:15.358Z,100231.41
2023-05-02T21:46:17.999Z,100233.72
2023-05-02T21:49:21.250Z,100224.84
2023-05-02T21:52:23.771Z,100230.84
2023-05-02T21:55:26.646Z,100236.41
2023-05-02T21:58:29.804Z,100250.00
2023-05-02T22:01:33.006Z,100264.88
2023-05-02T22:04:35.880Z,100266.47
2023-05-02T22:07:38.345Z,100270.50
2023-05-02T22:10:43.029Z,100274.97
2023-05-02T22:13:45.983Z,100276.44
2023-05-02T22:16:48.854Z,100294.28
2023-05-02T22:19:54.329Z,100299.28
2023-05-02T22:22:57.267Z,100307.50
2023-05-02T22:25:59.829Z,100303.53
2023-05-02T22:29:03.051Z,100308.53
2023-05-02T22:32:05.880Z,100300.47
2023-05-02T22:35:09.093Z,100305.00
2023-05-02T22:38:16.526Z,100305.37
2023-05-02T22:41:19.370Z,100309.50
2023-05-02T22:44:21.872Z,100285.09
2023-05-02T22:47:25.207Z,100297.09
2023-05-02T22:50:28.311Z,100293.59
2023-05-02T22:53:31.324Z,100301.25
2023-05-02T22:56:34.284Z,100309.41
2023-05-02T22:59:37.176Z,100309.53
2023-05-02T23:02:39.871Z,100317.78
2023-05-02T23:05:42.824Z,100313.97
2023-05-02T23:08:45.425Z,100316.47
2023-05-02T23:11:48.261Z,100318.31
2023-05-02T23:14:50.831Z,100299.56
2023-05-02T23:17:53.696Z,100295.97
2023-05-02T23:20:56.523Z,100311.94
2023-05-02T23:23:59.502Z,100314.44
2023-05-02T23:27:02.020Z,100320.34
2023-05-02T23:30:05.801Z,100318.63
2023-05-02T23:33:08.844Z,100305.81
2023-05-02T23:36:11.770Z,100307.63
2023-05-02T23:39:14.548Z,100305.25
2023-05-02T23:42:17.452Z,100301.94
2023-05-02T23:45:20.099Z,100300.28
2023-05-02T23:48:22.918Z,100306.44
2023-05-02T23:51:25.603Z,100305.16
2023-05-02T23:54:33.327Z,100302.47
2023-05-02T23:57:37.089Z,100299.00
